createdAt,value
2018-08-28T00:01:31.108Z,15.00
2018-08-28T00:04:00.034Z,15.00
2018-08-28T00:06:28.996Z,14.90
2018-08-28T00:08:58.087Z,14.90
2018-08-28T00:11:27.059Z,14.90
2018-08-28T00:13:56.107Z,14.90
2018-08-28T00:16:25.115Z,14.90
2018-08-28T00:18:54.153Z,14.80
2018-08-28T00:21:23.223Z,14.70
2018-08-28T00:23:52.196Z,14.60
2018-08-28T00:26:21.157Z,14.60
2018-08-28T00:28:50.098Z,14.60
2018-08-28T00:31:19.033Z,14.60
2018-08-28T00:33:48.215Z,14.60
2018-08-28T00:36:17.200Z,14.50
2018-08-28T00:38:46.154Z,14.50
2018-08-28T00:41:15.097Z,14.40
2018-08-28T00:43:44.187Z,14.40
2018-08-28T00:46:13.241Z,14.30
2018-08-28T00:48:42.239Z,14.30
2018-08-28T00:51:11.187Z,14.30
2018-08-28T00:53:40.131Z,14.30
2018-08-28T00:56:09.064Z,14.30
2018-08-28T00:58:37.987Z,14.30
2018-08-28T01:01:06.938Z,14.30
2018-08-28T01:03:36.043Z,14.30
2018-08-28T01:06:05.219Z,14.30
2018-08-28T01:08:34.272Z,14.30
2018-08-28T01:11:03.379Z,14.30
2018-08-28T01:13:32.380Z,14.30
2018-08-28T01:16:01.371Z,14.30
2018-08-28T01:18:30.379Z,14.20
2018-08-28T01:20:59.460Z,14.10
2018-08-28T01:23:28.405Z,14.10
2018-08-28T01:25:57.344Z,14.00
2018-08-28T01:28:26.437Z,14.00
2018-08-28T01:30:55.368Z,14.00
2018-08-28T01:33:25.063Z,13.90
2018-08-28T01:35:55.090Z,13.90
2018-08-28T01:38:24.210Z,13.80
2018-08-28T01:40:53.707Z,13.80
2018-08-28T01:43:24.690Z,13.80
2018-08-28T01:45:55.149Z,13.80
2018-08-28T01:48:24.108Z,13.70
2018-08-28T01:50:53.176Z,13.70
2018-08-28T01:53:22.248Z,13.60
2018-08-28T01:55:51.199Z,13.60
2018-08-28T01:58:20.263Z,13.60
2018-08-28T02:00:49.221Z,13.60
2018-08-28T02:03:18.172Z,13.60
2018-08-28T02:05:47.234Z,13.60
2018-08-28T02:08:16.334Z,13.60
2018-08-28T02:10:45.315Z,13.70
2018-08-28T02:13:14.372Z,13.70
2018-08-28T02:15:43.323Z,13.70
2018-08-28T02:18:12.328Z,13.70
2018-08-28T02:20:41.439Z,13.70
2018-08-28T02:23:10.379Z,13.60
2018-08-28T02:25:39.341Z,13.60
2018-08-28T02:28:08.320Z,13.60
2018-08-28T02:30:37.382Z,13.60
2018-08-28T02:33:06.298Z,13.60
2018-08-28T02:35:35.277Z,13.50
2018-08-28T02:38:04.398Z,13.50
2018-08-28T02:40:33.512Z,13.50
2018-08-28T02:43:02.564Z,13.50
2018-08-28T02:45:31.799Z,13.60
2018-08-28T02:48:00.767Z,13.60
2018-08-28T02:50:29.734Z,13.60
2018-08-28T02:52:58.703Z,13.60
2018-08-28T02:55:27.822Z,13.60
2018-08-28T02:57:56.762Z,13.70
2018-08-28T03:00:26.318Z,13.60
2018-08-28T03:02:55.369Z,13.60
2018-08-28T03:05:24.321Z,13.60
2018-08-28T03:07:53.323Z,13.60
2018-08-28T03:10:22.503Z,13.50
2018-08-28T03:12:51.472Z,13.50
2018-08-28T03:15:20.475Z,13.50
2018-08-28T03:17:49.394Z,13.40
2018-08-28T03:20:18.314Z,13.40
2018-08-28T03:22:47.377Z,13.30
2018-08-28T03:25:16.328Z,13.20
2018-08-28T03:27:45.273Z,13.10
2018-08-28T03:30:14.206Z,13.00
2018-08-28T03:32:43.159Z,12.90
2018-08-28T03:35:12.093Z,12.90
2018-08-28T03:37:41.313Z,12.90
2018-08-28T03:40:10.361Z,12.80
2018-08-28T03:42:39.281Z,12.80
2018-08-28T03:45:08.293Z,12.70
2018-08-28T03:47:37.415Z,12.70
2018-08-28T03:50:06.381Z,12.70
2018-08-28T03:52:36.211Z,12.60
2018-08-28T03:55:05.215Z,12.60
2018-08-28T03:57:34.212Z,12.60
2018-08-28T04:00:03.231Z,12.50
2018-08-28T04:02:32.190Z,12.50
2018-08-28T04:05:01.807Z,12.50
2018-08-28T04:07:30.759Z,12.60
2018-08-28T04:09:59.706Z,12.60
2018-08-28T04:12:28.766Z,12.60
2018-08-28T04:14:57.723Z,12.60
2018-08-28T04:17:26.733Z,12.70
2018-08-28T04:19:55.645Z,12.70
2018-08-28T04:22:24.655Z,12.70
2018-08-28T04:24:53.710Z,12.80
2018-08-28T04:27:22.912Z,12.80
2018-08-28T04:29:51.952Z,12.90
2018-08-28T04:32:20.930Z,13.00
2018-08-28T04:34:49.988Z,12.90
2018-08-28T04:37:19.034Z,12.90
2018-08-28T04:39:47.993Z,13.00
2018-08-28T04:42:17.004Z,13.00
2018-08-28T04:44:45.929Z,13.00
2018-08-28T04:47:14.875Z,13.00
2018-08-28T04:49:43.871Z,13.00
2018-08-28T04:52:12.878Z,13.00
2018-08-28T04:54:41.953Z,13.10
2018-08-28T04:57:11.303Z,13.20
2018-08-28T04:59:40.638Z,13.10
2018-08-28T05:02:10.001Z,13.20
2018-08-28T05:04:39.107Z,13.20
2018-08-28T05:07:08.591Z,13.30
2018-08-28T05:09:37.720Z,13.40
2018-08-28T05:12:07.134Z,13.40
2018-08-28T05:14:36.101Z,13.40
2018-08-28T05:17:05.341Z,13.50
2018-08-28T05:19:34.422Z,13.60
2018-08-28T05:22:03.443Z,13.70
2018-08-28T05:24:32.409Z,13.80
2018-08-28T05:27:01.359Z,13.90
2018-08-28T05:29:31.178Z,13.90
2018-08-28T05:32:00.048Z,14.00
2018-08-28T05:34:29.131Z,14.10
2018-08-28T05:36:58.140Z,14.20
2018-08-28T05:39:27.123Z,14.30
2018-08-28T05:41:56.540Z,14.40
2018-08-28T05:44:25.522Z,14.60
2018-08-28T05:46:54.610Z,14.60
2018-08-28T05:49:23.611Z,14.80
2018-08-28T05:51:53.147Z,14.90
2018-08-28T05:54:22.201Z,15.10
2018-08-28T05:56:51.187Z,15.20
2018-08-28T05:59:20.193Z,15.00
2018-08-28T06:01:49.146Z,15.40
2018-08-28T06:04:18.113Z,15.60
2018-08-28T06:06:47.188Z,15.60
2018-08-28T06:09:16.211Z,15.70
2018-08-28T06:11:45.175Z,15.60
2018-08-28T06:14:14.230Z,15.60
2018-08-28T06:16:43.376Z,15.70
2018-08-28T06:19:12.685Z,16.20
2018-08-28T06:21:41.618Z,16.10
2018-08-28T06:24:10.588Z,16.10
2018-08-28T06:26:39.761Z,16.10
2018-08-28T06:29:09.003Z,16.30
2018-08-28T06:31:38.181Z,16.50
2018-08-28T06:34:07.872Z,16.40
2018-08-28T06:36:37.474Z,16.50
2018-08-28T06:39:08.163Z,16.70
2018-08-28T06:41:37.327Z,16.70
2018-08-28T06:44:06.353Z,16.80
2018-08-28T06:46:35.399Z,16.90
2018-08-28T06:49:04.464Z,17.10
2018-08-28T06:51:33.473Z,17.20
2018-08-28T06:54:02.609Z,17.30
2018-08-28T06:56:31.895Z,17.50
2018-08-28T06:59:01.692Z,17.80
2018-08-28T07:01:30.658Z,17.80
2018-08-28T07:04:00.189Z,18.00
2018-08-28T07:06:29.921Z,17.90
2018-08-28T07:08:58.907Z,18.10
2018-08-28T07:11:27.854Z,18.20
2018-08-28T07:13:56.856Z,18.40
2018-08-28T07:16:25.826Z,18.70
2018-08-28T07:18:54.863Z,18.80
2018-08-28T07:21:23.855Z,18.90
2018-08-28T07:23:52.870Z,18.90
2018-08-28T07:26:21.842Z,19.30
2018-08-28T07:28:50.923Z,19.60
2018-08-28T07:31:19.970Z,19.70
2018-08-28T07:33:49.035Z,19.50
2018-08-28T07:36:17.998Z,19.40
2018-08-28T07:38:46.978Z,20.10
2018-08-28T07:41:16.068Z,19.90
2018-08-28T07:43:45.139Z,20.10
2018-08-28T07:46:14.641Z,20.10
2018-08-28T07:48:43.759Z,20.00
2018-08-28T07:51:12.837Z,20.50
2018-08-28T07:53:41.913Z,20.70
2018-08-28T07:56:10.939Z,20.60
2018-08-28T07:58:40.462Z,20.70
2018-08-28T08:01:09.623Z,21.00
2018-08-28T08:03:38.599Z,21.30
2018-08-28T08:06:07.596Z,21.40
2018-08-28T08:08:37.267Z,21.60
2018-08-28T08:11:06.311Z,22.40
2018-08-28T08:13:35.364Z,22.10
2018-08-28T08:16:04.474Z,22.10
2018-08-28T08:18:33.840Z,22.40
2018-08-28T08:21:02.820Z,22.00
2018-08-28T08:23:31.770Z,21.90
2018-08-28T08:26:00.749Z,22.10
2018-08-28T08:28:29.693Z,22.30
2018-08-28T08:30:58.762Z,22.50
2018-08-28T08:33:27.900Z,22.80
2018-08-28T08:35:58.408Z,22.80
2018-08-28T08:38:27.944Z,23.10
2018-08-28T08:40:57.791Z,23.10
2018-08-28T08:43:26.764Z,23.40
2018-08-28T08:45:55.804Z,24.00
2018-08-28T08:48:25.641Z,24.10
2018-08-28T08:50:54.594Z,23.90
2018-08-28T08:53:23.539Z,24.30
2018-08-28T08:55:52.664Z,24.10
2018-08-28T08:58:21.658Z,24.20
2018-08-28T09:00:50.577Z,24.10
2018-08-28T09:03:19.637Z,24.00
2018-08-28T09:05:49.403Z,24.50
2018-08-28T09:08:18.458Z,24.60
2018-08-28T09:10:47.403Z,24.80
2018-08-28T09:13:16.369Z,25.10
2018-08-28T09:15:45.338Z,25.40
2018-08-28T09:18:14.323Z,25.30
2018-08-28T09:20:43.265Z,24.30
2018-08-28T09:23:12.224Z,23.40
2018-08-28T09:25:41.190Z,22.80
2018-08-28T09:28:10.158Z,22.20
2018-08-28T09:30:39.257Z,22.10
2018-08-28T09:33:08.250Z,21.70
2018-08-28T09:35:37.298Z,22.10
2018-08-28T09:38:06.314Z,22.60
2018-08-28T09:40:35.518Z,22.90
2018-08-28T09:43:04.612Z,22.80
2018-08-28T09:45:33.726Z,22.50
2018-08-28T09:48:02.863Z,22.10
2018-08-28T09:50:31.924Z,22.20
2018-08-28T09:53:01.050Z,22.50
2018-08-28T09:55:30.031Z,22.50
2018-08-28T09:57:59.042Z,22.50
2018-08-28T10:00:29.772Z,22.20
2018-08-28T10:02:59.425Z,22.40
2018-08-28T10:05:28.338Z,23.30
2018-08-28T10:07:57.372Z,23.10
2018-08-28T10:10:26.363Z,22.60
2018-08-28T10:12:55.435Z,22.20
2018-08-28T10:15:24.400Z,21.80
2018-08-28T10:17:53.491Z,21.70
2018-08-28T10:20:22.484Z,21.90
2018-08-28T10:22:52.035Z,21.70
2018-08-28T10:25:20.979Z,21.50
2018-08-28T10:27:49.984Z,21.40
2018-08-28T10:30:18.987Z,21.30
2018-08-28T10:32:47.976Z,21.40
2018-08-28T10:35:16.950Z,21.30
2018-08-28T10:37:46.002Z,21.40
2018-08-28T10:40:15.048Z,21.40
2018-08-28T10:42:44.028Z,21.40
2018-08-28T10:45:13.365Z,21.50
2018-08-28T10:47:42.467Z,21.70
2018-08-28T10:50:11.571Z,21.50
2018-08-28T10:52:40.543Z,21.70
2018-08-28T10:55:09.564Z,22.00
2018-08-28T10:57:38.679Z,22.40
2018-08-28T11:00:07.676Z,22.30
2018-08-28T11:02:37.023Z,22.80
2018-08-28T11:05:06.177Z,23.20
2018-08-28T11:07:35.302Z,23.30
2018-08-28T11:10:04.513Z,23.90
2018-08-28T11:12:33.518Z,23.80
2018-08-28T11:15:03.144Z,23.40
2018-08-28T11:17:32.658Z,23.00
2018-08-28T11:20:01.601Z,23.10
2018-08-28T11:22:30.588Z,23.00
2018-08-28T11:24:59.519Z,23.00
2018-08-28T11:27:29.126Z,22.90
2018-08-28T11:29:58.118Z,22.60
2018-08-28T11:32:27.116Z,22.30
2018-08-28T11:34:56.680Z,22.20
2018-08-28T11:37:25.726Z,22.20
2018-08-28T11:39:54.788Z,22.20
2018-08-28T11:42:23.860Z,22.40
2018-08-28T11:44:53.249Z,22.50
2018-08-28T11:47:22.211Z,22.50
2018-08-28T11:49:51.486Z,22.90
2018-08-28T11:52:20.589Z,23.60
2018-08-28T11:54:49.555Z,24.10
2018-08-28T11:57:18.501Z,24.60
2018-08-28T11:59:48.243Z,25.10
2018-08-28T12:04:54.797Z,25.50
2018-08-28T12:07:24.404Z,25.30
2018-08-28T12:09:54.422Z,25.00
2018-08-28T12:12:23.369Z,24.90
2018-08-28T12:14:52.297Z,24.30
2018-08-28T12:17:21.238Z,23.60
2018-08-28T12:19:50.230Z,23.00
2018-08-28T12:22:19.237Z,22.90
2018-08-28T12:24:48.237Z,22.60
2018-08-28T12:27:17.242Z,22.60
2018-08-28T12:29:47.524Z,22.60
2018-08-28T12:32:16.603Z,22.40
2018-08-28T12:34:45.739Z,22.20
2018-08-28T12:37:14.845Z,22.20
2018-08-28T12:39:43.725Z,22.20
2018-08-28T12:42:12.680Z,22.20
2018-08-28T12:44:41.868Z,22.10
2018-08-28T12:47:11.619Z,22.20
2018-08-28T12:49:40.599Z,22.20
2018-08-28T12:52:09.571Z,22.30
2018-08-28T12:54:38.728Z,22.20
2018-08-28T12:57:07.769Z,22.30
2018-08-28T12:59:36.924Z,22.50
2018-08-28T13:02:05.973Z,22.70
2018-08-28T13:04:35.071Z,22.90
2018-08-28T13:07:04.098Z,23.40
2018-08-28T13:09:33.017Z,23.60
2018-08-28T13:12:02.847Z,23.60
2018-08-28T13:14:33.323Z,23.60
2018-08-28T13:17:02.459Z,23.70
2018-08-28T13:19:31.518Z,23.60
2018-08-28T13:22:01.117Z,23.70
2018-08-28T13:24:30.129Z,23.40
2018-08-28T13:26:59.144Z,23.20
2018-08-28T13:29:28.102Z,23.20
2018-08-28T13:32:02.552Z,23.20
2018-08-28T13:34:31.519Z,23.30
2018-08-28T13:37:01.448Z,23.00
2018-08-28T13:39:31.191Z,23.20
2018-08-28T13:42:00.809Z,23.10
2018-08-28T13:44:29.825Z,23.20
2018-08-28T13:46:59.047Z,22.90
2018-08-28T13:49:28.068Z,22.70
2018-08-28T13:51:57.582Z,22.70
2018-08-28T13:54:26.592Z,22.50
2018-08-28T13:56:55.876Z,22.50
2018-08-28T13:59:25.981Z,22.60
2018-08-28T14:01:55.094Z,22.70
2018-08-28T14:04:24.278Z,22.90
2018-08-28T14:06:53.360Z,23.00
2018-08-28T14:09:22.356Z,23.00
2018-08-28T14:11:53.390Z,23.00
2018-08-28T14:14:22.701Z,23.00
2018-08-28T14:16:51.724Z,23.10
2018-08-28T14:19:20.959Z,23.20
2018-08-28T14:21:50.563Z,23.10
2018-08-28T14:24:20.722Z,23.00
2018-08-28T14:26:49.772Z,23.10
2018-08-28T14:29:19.299Z,23.20
2018-08-28T14:31:48.773Z,23.20
2018-08-28T14:34:17.895Z,23.20
2018-08-28T14:36:47.986Z,23.10
2018-08-28T14:39:17.012Z,22.90
2018-08-28T14:41:46.259Z,22.90
2018-08-28T14:44:15.288Z,22.80
2018-08-28T14:46:44.250Z,22.80
2018-08-28T14:49:13.910Z,22.80
2018-08-28T14:51:43.475Z,22.60
2018-08-28T14:54:12.619Z,22.90
2018-08-28T14:56:42.734Z,23.10
2018-08-28T14:59:11.600Z,23.10
2018-08-28T15:01:40.734Z,23.40
2018-08-28T15:04:10.651Z,23.50
2018-08-28T15:06:39.617Z,23.40
2018-08-28T15:09:09.274Z,23.20
2018-08-28T15:11:38.881Z,22.90
2018-08-28T15:14:07.964Z,22.80
2018-08-28T15:16:37.629Z,22.80
2018-08-28T15:19:08.150Z,22.70
2018-08-28T15:21:38.617Z,23.10
2018-08-28T15:24:09.433Z,23.20
2018-08-28T15:26:39.535Z,23.20
2018-08-28T15:29:09.788Z,23.00
2018-08-28T15:31:39.754Z,23.00
2018-08-28T15:34:09.996Z,23.10
2018-08-28T15:36:39.302Z,23.80
2018-08-28T15:39:08.404Z,24.20
2018-08-28T15:41:37.843Z,24.00
2018-08-28T15:44:06.816Z,23.60
2018-08-28T15:46:36.571Z,23.70
2018-08-28T15:49:05.513Z,23.50
2018-08-28T15:51:35.118Z,23.20
2018-08-28T15:54:04.067Z,23.10
2018-08-28T15:56:33.120Z,23.00
2018-08-28T15:59:02.109Z,22.80
2018-08-28T16:01:31.287Z,22.70
2018-08-28T16:04:00.212Z,22.60
2018-08-28T16:06:29.685Z,22.60
2018-08-28T16:08:59.355Z,22.40
2018-08-28T16:11:29.175Z,22.40
2018-08-28T16:13:58.116Z,22.40
2018-08-28T16:16:27.084Z,22.20
2018-08-28T16:18:56.194Z,22.00
2018-08-28T16:21:30.159Z,22.00
2018-08-28T16:23:59.175Z,21.90
2018-08-28T16:26:28.566Z,21.70
2018-08-28T16:28:57.615Z,21.60
2018-08-28T16:31:26.613Z,21.60
2018-08-28T16:33:55.647Z,21.60
2018-08-28T16:36:24.595Z,21.50
2018-08-28T16:38:53.545Z,21.40
2018-08-28T16:41:22.550Z,21.30
2018-08-28T16:43:51.492Z,21.20
2018-08-28T16:46:20.602Z,21.10
2018-08-28T16:48:49.575Z,21.00
2018-08-28T16:51:18.548Z,21.00
2018-08-28T16:53:47.591Z,21.00
2018-08-28T16:56:17.010Z,20.90
2018-08-28T16:58:46.037Z,20.90
2018-08-28T17:01:15.068Z,20.90
2018-08-28T17:03:44.079Z,20.80
2018-08-28T17:06:13.119Z,20.80
2018-08-28T17:08:42.249Z,20.70
2018-08-28T17:11:11.306Z,20.60
2018-08-28T17:13:40.346Z,20.50
2018-08-28T17:16:09.306Z,20.50
2018-08-28T17:18:38.272Z,20.40
2018-08-28T17:21:07.313Z,20.30
2018-08-28T17:23:36.326Z,20.20
2018-08-28T17:26:05.370Z,20.20
2018-08-28T17:28:34.309Z,20.10
2018-08-28T17:31:03.360Z,20.00
2018-08-28T17:33:32.295Z,19.90
2018-08-28T17:36:01.252Z,19.80
2018-08-28T17:38:30.191Z,19.70
2018-08-28T17:40:59.317Z,19.60
2018-08-28T17:43:34.909Z,19.50
2018-08-28T17:46:03.951Z,19.40
2018-08-28T17:48:33.111Z,19.40
2018-08-28T17:51:02.135Z,19.30
2018-08-28T17:53:31.100Z,19.20
2018-08-28T17:56:02.323Z,19.10
2018-08-28T17:58:31.374Z,19.00
2018-08-28T18:01:00.416Z,18.90
2018-08-28T18:03:29.484Z,18.90
2018-08-28T18:05:58.448Z,18.70
2018-08-28T18:08:28.083Z,18.60
2018-08-28T18:10:57.093Z,18.60
2018-08-28T18:13:26.057Z,18.50
2018-08-28T18:15:55.067Z,18.40
2018-08-28T18:18:24.058Z,18.30
2018-08-28T18:20:53.229Z,18.20
2018-08-28T18:23:22.232Z,18.10
2018-08-28T18:25:51.259Z,18.00
2018-08-28T18:28:20.250Z,17.90
2018-08-28T18:30:49.399Z,17.80
2018-08-28T18:33:18.470Z,17.70
2018-08-28T18:35:47.523Z,17.60
2018-08-28T18:38:16.987Z,17.50
2018-08-28T18:40:46.134Z,17.40
2018-08-28T18:43:15.308Z,17.40
2018-08-28T18:45:44.711Z,17.30
2018-08-28T18:48:14.326Z,17.30
2018-08-28T18:50:43.422Z,17.20
2018-08-28T18:53:12.641Z,17.10
2018-08-28T18:55:42.173Z,17.00
2018-08-28T18:58:11.182Z,17.00
2018-08-28T19:00:40.307Z,16.90
2018-08-28T19:03:09.994Z,16.90
2018-08-28T19:05:39.054Z,16.80
2018-08-28T19:08:08.045Z,16.60
2018-08-28T19:10:37.205Z,16.50
2018-08-28T19:13:06.366Z,16.50
2018-08-28T19:15:35.520Z,16.40
2018-08-28T19:18:04.518Z,16.40
2018-08-28T19:20:33.819Z,16.30
2018-08-28T19:23:02.891Z,16.20
2018-08-28T19:25:31.869Z,16.20
2018-08-28T19:28:00.812Z,16.10
2018-08-28T19:30:29.822Z,16.10
2018-08-28T19:32:58.804Z,16.00
2018-08-28T19:35:27.839Z,16.00
2018-08-28T19:37:57.134Z,16.00
2018-08-28T19:40:26.222Z,15.90
2018-08-28T19:42:55.317Z,15.80
2018-08-28T19:45:24.408Z,15.80
2018-08-28T19:47:53.494Z,15.80
2018-08-28T19:50:22.874Z,15.70
2018-08-28T19:52:52.156Z,15.70
2018-08-28T19:55:21.259Z,15.60
2018-08-28T19:57:51.140Z,15.50
2018-08-28T20:00:20.345Z,15.40
2018-08-28T20:02:49.424Z,15.40
2018-08-28T20:05:18.365Z,15.30
2018-08-28T20:07:47.351Z,15.30
2018-08-28T20:10:16.355Z,15.30
2018-08-28T20:12:45.667Z,15.30
2018-08-28T20:15:14.679Z,15.20
2018-08-28T20:17:43.731Z,15.20
2018-08-28T20:20:13.455Z,15.10
2018-08-28T20:22:42.455Z,15.00
2018-08-28T20:25:11.483Z,14.90
2018-08-28T20:27:40.499Z,14.90
2018-08-28T20:30:09.571Z,14.90
2018-08-28T20:32:38.652Z,14.80
2018-08-28T20:35:08.020Z,14.70
2018-08-28T20:37:37.147Z,14.70
2018-08-28T20:40:06.228Z,14.70
2018-08-28T20:42:35.319Z,14.70
2018-08-28T20:45:04.437Z,14.60
2018-08-28T20:47:33.398Z,14.50
2018-08-28T20:50:02.419Z,14.50
2018-08-28T20:52:31.373Z,14.40
2018-08-28T20:55:01.411Z,14.40
2018-08-28T20:57:30.377Z,14.30
2018-08-28T20:59:59.805Z,14.30
2018-08-28T21:02:28.756Z,14.20
2018-08-28T21:04:58.374Z,14.20
2018-08-28T21:07:27.469Z,14.10
2018-08-28T21:09:56.515Z,14.10
2018-08-28T21:12:25.595Z,14.00
2018-08-28T21:14:54.552Z,14.00
2018-08-28T21:17:23.498Z,14.00
2018-08-28T21:19:52.467Z,13.90
2018-08-28T21:22:21.408Z,13.90
2018-08-28T21:24:51.329Z,13.90
2018-08-28T21:27:20.343Z,13.80
2018-08-28T21:29:49.285Z,13.80
2018-08-28T21:32:18.309Z,13.80
2018-08-28T21:34:47.252Z,13.70
2018-08-28T21:37:16.315Z,13.70
2018-08-28T21:39:45.416Z,13.70
2018-08-28T21:42:14.403Z,13.80
2018-08-28T21:44:43.295Z,13.90
2018-08-28T21:47:12.264Z,13.80
2018-08-28T21:49:41.262Z,13.80
2018-08-28T21:52:10.888Z,13.80
2018-08-28T21:54:39.841Z,13.70
2018-08-28T21:57:08.877Z,13.60
2018-08-28T21:59:38.118Z,13.60
2018-08-28T22:02:07.190Z,13.60
2018-08-28T22:04:39.168Z,13.50
2018-08-28T22:07:13.497Z,13.40
2018-08-28T22:09:42.522Z,13.30
2018-08-28T22:12:11.573Z,13.30
2018-08-28T22:14:40.752Z,13.20
2018-08-28T22:17:09.756Z,13.30
2018-08-28T22:19:38.748Z,13.30
2018-08-28T22:22:07.757Z,13.30
2018-08-28T22:24:36.743Z,13.20
2018-08-28T22:27:05.748Z,13.10
2018-08-28T22:29:34.751Z,13.10
2018-08-28T22:32:03.853Z,13.10
2018-08-28T22:34:32.818Z,13.10
2018-08-28T22:37:01.890Z,13.10
2018-08-28T22:39:30.932Z,13.10
2018-08-28T22:41:59.951Z,13.00
2018-08-28T22:44:28.887Z,12.90
2018-08-28T22:46:57.829Z,12.80
2018-08-28T22:49:26.804Z,12.80
2018-08-28T22:51:55.852Z,12.70
2018-08-28T22:54:24.824Z,12.70
2018-08-28T22:56:53.842Z,12.70
2018-08-28T22:59:22.864Z,12.60
2018-08-28T23:01:51.810Z,12.60
2018-08-28T23:04:20.902Z,12.60
2018-08-28T23:06:49.877Z,12.50
2018-08-28T23:09:18.820Z,12.60
2018-08-28T23:11:47.804Z,12.50
2018-08-28T23:14:16.769Z,12.50
2018-08-28T23:16:46.065Z,12.60
2018-08-28T23:19:16.004Z,12.50
2018-08-28T23:21:44.939Z,12.40
2018-08-28T23:24:13.894Z,12.40
2018-08-28T23:26:42.835Z,12.40
2018-08-28T23:29:12.164Z,12.40
2018-08-28T23:31:41.122Z,12.50
2018-08-28T23:34:10.049Z,12.40
2018-08-28T23:36:39.021Z,12.40
2018-08-28T23:39:08.326Z,12.40
2018-08-28T23:41:37.390Z,12.40
2018-08-28T23:44:06.362Z,12.30
2018-08-28T23:46:35.378Z,12.30
2018-08-28T23:49:04.372Z,12.30
2018-08-28T23:51:33.344Z,12.20
2018-08-28T23:54:02.269Z,12.10
2018-08-28T23:56:31.378Z,12.20
